sensor_id;sensor_type;location;lat;lon;timestamp;P1;durP1;ratioP1;P2;durP2;ratioP2
75912;SDS011;64592;52.168;21.040;2024-02-28T00:02:24;35.97;;;19.35;;
75912;SDS011;64592;52.168;21.040;2024-02-28T00:07:27;37.75;;;20.98;;
75912;SDS011;64592;52.168;21.040;2024-02-28T00:12:28;44.85;;;22.85;;
75912;SDS011;64592;52.168;21.040;2024-02-28T00:17:30;33.50;;;19.95;;
75912;SDS011;64592;52.168;21.040;2024-02-28T00:22:33;42.42;;;21.85;;
75912;SDS011;64592;52.168;21.040;2024-02-28T00:27:35;38.00;;;20.42;;
75912;SDS011;64592;52.168;21.040;2024-02-28T00:32:36;36.78;;;20.27;;
75912;SDS011;64592;52.168;21.040;2024-02-28T00:37:39;35.45;;;20.40;;
75912;SDS011;64592;52.168;21.040;2024-02-28T00:42:41;41.22;;;20.85;;
75912;SDS011;64592;52.168;21.040;2024-02-28T00:47:43;35.13;;;19.13;;
75912;SDS011;64592;52.168;21.040;2024-02-28T00:52:46;39.40;;;18.25;;
75912;SDS011;64592;52.168;21.040;2024-02-28T00:57:49;36.47;;;20.65;;
75912;SDS011;64592;52.168;21.040;2024-02-28T01:02:50;38.30;;;20.15;;
75912;SDS011;64592;52.168;21.040;2024-02-28T01:07:54;32.50;;;19.67;;
75912;SDS011;64592;52.168;21.040;2024-02-28T01:12:56;39.33;;;19.00;;
75912;SDS011;64592;52.168;21.040;2024-02-28T01:17:58;37.35;;;19.60;;
75912;SDS011;64592;52.168;21.040;2024-02-28T01:23:01;35.25;;;19.98;;
75912;SDS011;64592;52.168;21.040;2024-02-28T01:28:03;40.17;;;21.45;;
75912;SDS011;64592;52.168;21.040;2024-02-28T01:33:06;39.90;;;22.00;;
75912;SDS011;64592;52.168;21.040;2024-02-28T01:38:09;39.55;;;22.33;;
75912;SDS011;64592;52.168;21.040;2024-02-28T01:43:11;38.53;;;22.17;;
75912;SDS011;64592;52.168;21.040;2024-02-28T01:48:13;40.10;;;24.20;;
75912;SDS011;64592;52.168;21.040;2024-02-28T01:53:16;44.30;;;23.90;;
75912;SDS011;64592;52.168;21.040;2024-02-28T01:58:18;41.58;;;23.23;;
75912;SDS011;64592;52.168;21.040;2024-02-28T02:03:20;42.95;;;23.33;;
75912;SDS011;64592;52.168;21.040;2024-02-28T02:08:23;48.67;;;25.65;;
75912;SDS011;64592;52.168;21.040;2024-02-28T02:13:25;45.72;;;24.67;;
75912;SDS011;64592;52.168;21.040;2024-02-28T02:18:27;46.40;;;26.85;;
75912;SDS011;64592;52.168;21.040;2024-02-28T02:23:30;44.40;;;25.30;;
75912;SDS011;64592;52.168;21.040;2024-02-28T02:28:32;47.33;;;26.13;;
75912;SDS011;64592;52.168;21.040;2024-02-28T02:33:34;50.05;;;27.77;;
75912;SDS011;64592;52.168;21.040;2024-02-28T02:38:37;49.63;;;26.20;;
75912;SDS011;64592;52.168;21.040;2024-02-28T02:43:39;48.22;;;25.88;;
75912;SDS011;64592;52.168;21.040;2024-02-28T02:48:40;46.95;;;26.83;;
75912;SDS011;64592;52.168;21.040;2024-02-28T02:53:43;50.88;;;26.92;;
75912;SDS011;64592;52.168;21.040;2024-02-28T02:58:45;47.75;;;26.65;;
75912;SDS011;64592;52.168;21.040;2024-02-28T03:03:47;45.85;;;24.88;;
75912;SDS011;64592;52.168;21.040;2024-02-28T03:08:50;51.20;;;25.55;;
75912;SDS011;64592;52.168;21.040;2024-02-28T03:13:52;42.10;;;23.50;;
75912;SDS011;64592;52.168;21.040;2024-02-28T03:18:54;46.90;;;26.13;;
75912;SDS011;64592;52.168;21.040;2024-02-28T03:23:58;46.85;;;25.80;;
75912;SDS011;64592;52.168;21.040;2024-02-28T03:28:59;44.83;;;26.02;;
75912;SDS011;64592;52.168;21.040;2024-02-28T03:34:02;49.88;;;27.70;;
75912;SDS011;64592;52.168;21.040;2024-02-28T03:39:05;53.17;;;26.63;;
75912;SDS011;64592;52.168;21.040;2024-02-28T03:44:06;49.38;;;26.00;;
75912;SDS011;64592;52.168;21.040;2024-02-28T03:49:08;47.40;;;27.35;;
75912;SDS011;64592;52.168;21.040;2024-02-28T03:54:11;48.38;;;26.17;;
75912;SDS011;64592;52.168;21.040;2024-02-28T03:59:13;49.13;;;28.13;;
75912;SDS011;64592;52.168;21.040;2024-02-28T04:04:14;51.97;;;29.90;;
75912;SDS011;64592;52.168;21.040;2024-02-28T04:09:17;49.38;;;28.98;;
75912;SDS011;64592;52.168;21.040;2024-02-28T04:14:20;49.92;;;29.55;;
75912;SDS011;64592;52.168;21.040;2024-02-28T04:19:22;54.03;;;29.58;;
75912;SDS011;64592;52.168;21.040;2024-02-28T04:24:25;54.78;;;30.42;;
75912;SDS011;64592;52.168;21.040;2024-02-28T04:29:26;55.72;;;29.08;;
75912;SDS011;64592;52.168;21.040;2024-02-28T04:34:28;55.50;;;30.80;;
75912;SDS011;64592;52.168;21.040;2024-02-28T04:39:31;53.90;;;29.50;;
75912;SDS011;64592;52.168;21.040;2024-02-28T04:44:33;59.05;;;29.25;;
75912;SDS011;64592;52.168;21.040;2024-02-28T04:49:36;55.05;;;30.08;;
75912;SDS011;64592;52.168;21.040;2024-02-28T04:54:41;51.17;;;28.00;;
75912;SDS011;64592;52.168;21.040;2024-02-28T04:59:43;57.42;;;29.73;;
75912;SDS011;64592;52.168;21.040;2024-02-28T05:04:46;56.80;;;31.50;;
75912;SDS011;64592;52.168;21.040;2024-02-28T05:09:49;54.53;;;30.30;;
75912;SDS011;64592;52.168;21.040;2024-02-28T05:14:51;62.33;;;30.52;;
75912;SDS011;64592;52.168;21.040;2024-02-28T05:19:53;56.60;;;31.42;;
75912;SDS011;64592;52.168;21.040;2024-02-28T05:24:56;56.60;;;31.02;;
75912;SDS011;64592;52.168;21.040;2024-02-28T05:29:57;58.75;;;32.13;;
75912;SDS011;64592;52.168;21.040;2024-02-28T05:35:01;63.88;;;31.92;;
75912;SDS011;64592;52.168;21.040;2024-02-28T05:40:06;58.25;;;30.55;;
75912;SDS011;64592;52.168;21.040;2024-02-28T05:50:12;55.42;;;29.58;;
75912;SDS011;64592;52.168;21.040;2024-02-28T05:55:16;58.47;;;29.05;;
75912;SDS011;64592;52.168;21.040;2024-02-28T06:00:18;61.38;;;30.90;;
75912;SDS011;64592;52.168;21.040;2024-02-28T06:05:20;56.65;;;29.90;;
75912;SDS011;64592;52.168;21.040;2024-02-28T06:10:23;53.67;;;30.13;;
75912;SDS011;64592;52.168;21.040;2024-02-28T06:15:25;49.28;;;28.15;;
75912;SDS011;64592;52.168;21.040;2024-02-28T06:20:27;47.30;;;27.52;;
75912;SDS011;64592;52.168;21.040;2024-02-28T06:25:30;47.53;;;28.38;;
75912;SDS011;64592;52.168;21.040;2024-02-28T06:30:34;49.38;;;28.30;;
75912;SDS011;64592;52.168;21.040;2024-02-28T06:35:35;51.83;;;29.23;;
75912;SDS011;64592;52.168;21.040;2024-02-28T06:40:39;53.58;;;28.48;;
75912;SDS011;64592;52.168;21.040;2024-02-28T06:45:41;43.38;;;26.15;;
75912;SDS011;64592;52.168;21.040;2024-02-28T06:50:43;45.58;;;26.50;;
75912;SDS011;64592;52.168;21.040;2024-02-28T06:55:46;50.00;;;25.98;;
75912;SDS011;64592;52.168;21.040;2024-02-28T07:00:48;50.75;;;26.85;;
75912;SDS011;64592;52.168;21.040;2024-02-28T07:05:50;53.22;;;28.50;;
75912;SDS011;64592;52.168;21.040;2024-02-28T07:10:54;53.22;;;27.40;;
75912;SDS011;64592;52.168;21.040;2024-02-28T07:15:56;54.55;;;27.65;;
75912;SDS011;64592;52.168;21.040;2024-02-28T07:20:58;45.33;;;27.38;;
75912;SDS011;64592;52.168;21.040;2024-02-28T07:26:02;52.92;;;26.40;;
75912;SDS011;64592;52.168;21.040;2024-02-28T07:31:04;51.67;;;26.65;;
75912;SDS011;64592;52.168;21.040;2024-02-28T07:36:05;50.85;;;27.23;;
75912;SDS011;64592;52.168;21.040;2024-02-28T07:41:09;47.20;;;26.63;;
75912;SDS011;64592;52.168;21.040;2024-02-28T07:46:10;51.90;;;27.73;;
75912;SDS011;64592;52.168;21.040;2024-02-28T07:51:12;49.92;;;28.17;;
75912;SDS011;64592;52.168;21.040;2024-02-28T07:56:16;46.83;;;27.85;;
75912;SDS011;64592;52.168;21.040;2024-02-28T08:01:18;50.22;;;27.77;;
75912;SDS011;64592;52.168;21.040;2024-02-28T08:06:22;50.90;;;27.05;;
75912;SDS011;64592;52.168;21.040;2024-02-28T08:11:26;49.88;;;26.33;;
75912;SDS011;64592;52.168;21.040;2024-02-28T08:16:28;51.22;;;28.65;;
75912;SDS011;64592;52.168;21.040;2024-02-28T08:21:30;50.95;;;28.00;;
75912;SDS011;64592;52.168;21.040;2024-02-28T08:26:33;52.90;;;29.52;;
75912;SDS011;64592;52.168;21.040;2024-02-28T08:31:39;51.75;;;27.70;;
75912;SDS011;64592;52.168;21.040;2024-02-28T08:36:42;50.03;;;26.80;;
75912;SDS011;64592;52.168;21.040;2024-02-28T08:41:45;52.83;;;28.52;;
75912;SDS011;64592;52.168;21.040;2024-02-28T08:46:46;55.50;;;30.40;;
75912;SDS011;64592;52.168;21.040;2024-02-28T08:51:49;50.42;;;27.88;;
75912;SDS011;64592;52.168;21.040;2024-02-28T08:56:52;54.95;;;28.58;;
75912;SDS011;64592;52.168;21.040;2024-02-28T09:01:53;66.43;;;32.67;;
75912;SDS011;64592;52.168;21.040;2024-02-28T09:06:55;57.90;;;30.63;;
75912;SDS011;64592;52.168;21.040;2024-02-28T09:11:58;59.08;;;32.17;;
75912;SDS011;64592;52.168;21.040;2024-02-28T09:17:00;51.60;;;29.55;;
75912;SDS011;64592;52.168;21.040;2024-02-28T09:22:03;56.05;;;31.63;;
75912;SDS011;64592;52.168;21.040;2024-02-28T09:27:06;53.40;;;29.10;;
75912;SDS011;64592;52.168;21.040;2024-02-28T09:32:08;50.88;;;28.40;;
75912;SDS011;64592;52.168;21.040;2024-02-28T09:37:10;52.05;;;28.50;;
75912;SDS011;64592;52.168;21.040;2024-02-28T09:42:13;46.70;;;25.08;;
75912;SDS011;64592;52.168;21.040;2024-02-28T09:47:15;44.97;;;25.30;;
75912;SDS011;64592;52.168;21.040;2024-02-28T09:52:17;41.53;;;25.20;;
75912;SDS011;64592;52.168;21.040;2024-02-28T09:57:21;42.17;;;23.70;;
75912;SDS011;64592;52.168;21.040;2024-02-28T10:02:28;39.42;;;22.70;;
75912;SDS011;64592;52.168;21.040;2024-02-28T10:07:30;42.92;;;23.52;;
75912;SDS011;64592;52.168;21.040;2024-02-28T10:12:33;37.25;;;21.38;;
75912;SDS011;64592;52.168;21.040;2024-02-28T10:17:36;39.47;;;20.20;;
75912;SDS011;64592;52.168;21.040;2024-02-28T10:22:38;35.03;;;19.48;;
75912;SDS011;64592;52.168;21.040;2024-02-28T10:27:41;33.92;;;18.85;;
75912;SDS011;64592;52.168;21.040;2024-02-28T10:32:48;33.80;;;19.23;;
75912;SDS011;64592;52.168;21.040;2024-02-28T10:37:50;38.95;;;20.30;;
75912;SDS011;64592;52.168;21.040;2024-02-28T10:42:54;36.35;;;20.83;;
75912;SDS011;64592;52.168;21.040;2024-02-28T10:47:58;40.80;;;21.67;;
75912;SDS011;64592;52.168;21.040;2024-02-28T10:53:00;44.13;;;21.13;;
75912;SDS011;64592;52.168;21.040;2024-02-28T10:58:07;38.15;;;21.00;;
75912;SDS011;64592;52.168;21.040;2024-02-28T11:03:10;40.13;;;22.02;;
75912;SDS011;64592;52.168;21.040;2024-02-28T11:08:20;41.08;;;23.02;;
75912;SDS011;64592;52.168;21.040;2024-02-28T11:13:24;43.03;;;23.23;;
75912;SDS011;64592;52.168;21.040;2024-02-28T11:18:27;39.72;;;22.45;;
75912;SDS011;64592;52.168;21.040;2024-02-28T11:23:35;40.33;;;22.15;;
75912;SDS011;64592;52.168;21.040;2024-02-28T11:28:40;40.55;;;21.13;;
75912;SDS011;64592;52.168;21.040;2024-02-28T11:33:42;39.33;;;21.08;;
75912;SDS011;64592;52.168;21.040;2024-02-28T11:38:44;37.92;;;20.05;;
75912;SDS011;64592;52.168;21.040;2024-02-28T11:43:47;35.83;;;20.00;;
75912;SDS011;64592;52.168;21.040;2024-02-28T11:48:52;36.90;;;19.92;;
75912;SDS011;64592;52.168;21.040;2024-02-28T11:53:54;41.03;;;21.25;;
75912;SDS011;64592;52.168;21.040;2024-02-28T11:58:58;38.53;;;21.17;;
75912;SDS011;64592;52.168;21.040;2024-02-28T12:04:01;42.25;;;21.13;;
75912;SDS011;64592;52.168;21.040;2024-02-28T12:09:04;42.17;;;22.08;;
75912;SDS011;64592;52.168;21.040;2024-02-28T12:14:10;41.50;;;20.50;;
75912;SDS011;64592;52.168;21.040;2024-02-28T12:19:14;45.05;;;24.02;;
75912;SDS011;64592;52.168;21.040;2024-02-28T12:24:19;53.70;;;27.05;;
75912;SDS011;64592;52.168;21.040;2024-02-28T12:29:22;74.78;;;36.85;;
75912;SDS011;64592;52.168;21.040;2024-02-28T12:34:23;82.50;;;40.72;;
75912;SDS011;64592;52.168;21.040;2024-02-28T12:39:26;78.18;;;38.13;;
75912;SDS011;64592;52.168;21.040;2024-02-28T12:44:29;84.55;;;40.85;;
75912;SDS011;64592;52.168;21.040;2024-02-28T12:49:31;76.65;;;38.50;;
75912;SDS011;64592;52.168;21.040;2024-02-28T12:54:33;81.30;;;39.45;;
75912;SDS011;64592;52.168;21.040;2024-02-28T12:59:36;69.57;;;34.90;;
75912;SDS011;64592;52.168;21.040;2024-02-28T13:04:39;69.40;;;33.17;;
75912;SDS011;64592;52.168;21.040;2024-02-28T13:09:41;71.00;;;34.13;;
75912;SDS011;64592;52.168;21.040;2024-02-28T13:14:44;68.18;;;32.58;;
75912;SDS011;64592;52.168;21.040;2024-02-28T13:19:45;78.75;;;34.97;;
75912;SDS011;64592;52.168;21.040;2024-02-28T13:24:47;64.07;;;30.85;;
75912;SDS011;64592;52.168;21.040;2024-02-28T13:29:50;65.03;;;28.70;;
75912;SDS011;64592;52.168;21.040;2024-02-28T13:34:52;55.05;;;27.25;;
75912;SDS011;64592;52.168;21.040;2024-02-28T13:39:53;58.45;;;28.20;;
75912;SDS011;64592;52.168;21.040;2024-02-28T13:44:57;53.78;;;25.27;;
75912;SDS011;64592;52.168;21.040;2024-02-28T13:49:59;53.08;;;25.00;;
75912;SDS011;64592;52.168;21.040;2024-02-28T13:55:01;46.97;;;24.13;;
75912;SDS011;64592;52.168;21.040;2024-02-28T14:00:05;48.30;;;23.05;;
75912;SDS011;64592;52.168;21.040;2024-02-28T14:05:11;51.17;;;24.80;;
75912;SDS011;64592;52.168;21.040;2024-02-28T14:10:13;44.45;;;23.88;;
75912;SDS011;64592;52.168;21.040;2024-02-28T14:15:17;41.88;;;20.80;;
75912;SDS011;64592;52.168;21.040;2024-02-28T14:20:19;38.28;;;19.27;;
75912;SDS011;64592;52.168;21.040;2024-02-28T14:25:21;37.47;;;18.48;;
75912;SDS011;64592;52.168;21.040;2024-02-28T14:30:24;36.88;;;17.40;;
75912;SDS011;64592;52.168;21.040;2024-02-28T14:35:26;41.28;;;18.52;;
75912;SDS011;64592;52.168;21.040;2024-02-28T14:40:27;39.25;;;19.33;;
75912;SDS011;64592;52.168;21.040;2024-02-28T14:45:30;37.90;;;18.05;;
75912;SDS011;64592;52.168;21.040;2024-02-28T14:50:32;37.30;;;17.80;;
75912;SDS011;64592;52.168;21.040;2024-02-28T14:55:34;34.90;;;17.63;;
75912;SDS011;64592;52.168;21.040;2024-02-28T15:00:37;27.13;;;13.93;;
75912;SDS011;64592;52.168;21.040;2024-02-28T15:05:38;30.35;;;14.57;;
75912;SDS011;64592;52.168;21.040;2024-02-28T15:10:42;22.90;;;11.57;;
75912;SDS011;64592;52.168;21.040;2024-02-28T15:15:46;25.05;;;11.57;;
75912;SDS011;64592;52.168;21.040;2024-02-28T15:20:47;27.30;;;11.90;;
75912;SDS011;64592;52.168;21.040;2024-02-28T15:25:49;25.75;;;11.55;;
75912;SDS011;64592;52.168;21.040;2024-02-28T15:30:55;22.67;;;12.27;;
75912;SDS011;64592;52.168;21.040;2024-02-28T15:35:58;22.35;;;12.25;;
75912;SDS011;64592;52.168;21.040;2024-02-28T15:40:59;24.77;;;11.73;;
75912;SDS011;64592;52.168;21.040;2024-02-28T15:46:03;26.02;;;13.23;;
75912;SDS011;64592;52.168;21.040;2024-02-28T15:51:05;23.42;;;12.25;;
75912;SDS011;64592;52.168;21.040;2024-02-28T15:56:06;26.38;;;12.65;;
75912;SDS011;64592;52.168;21.040;2024-02-28T16:01:09;24.48;;;12.73;;
75912;SDS011;64592;52.168;21.040;2024-02-28T16:06:12;24.25;;;11.85;;
75912;SDS011;64592;52.168;21.040;2024-02-28T16:11:14;21.98;;;11.38;;
75912;SDS011;64592;52.168;21.040;2024-02-28T16:16:17;26.63;;;12.77;;
75912;SDS011;64592;52.168;21.040;2024-02-28T16:21:19;30.55;;;13.10;;
75912;SDS011;64592;52.168;21.040;2024-02-28T16:26:21;25.02;;;13.20;;
75912;SDS011;64592;52.168;21.040;2024-02-28T16:31:24;23.83;;;13.70;;
75912;SDS011;64592;52.168;21.040;2024-02-28T16:36:26;29.77;;;13.00;;
75912;SDS011;64592;52.168;21.040;2024-02-28T16:41:28;24.33;;;11.75;;
75912;SDS011;64592;52.168;21.040;2024-02-28T16:46:31;26.75;;;14.25;;
75912;SDS011;64592;52.168;21.040;2024-02-28T16:51:33;23.45;;;13.05;;
75912;SDS011;64592;52.168;21.040;2024-02-28T16:56:35;28.95;;;15.00;;
75912;SDS011;64592;52.168;21.040;2024-02-28T17:01:38;25.27;;;11.93;;
75912;SDS011;64592;52.168;21.040;2024-02-28T17:06:39;26.35;;;13.77;;
75912;SDS011;64592;52.168;21.040;2024-02-28T17:11:41;28.80;;;14.10;;
75912;SDS011;64592;52.168;21.040;2024-02-28T17:16:44;28.48;;;13.35;;
75912;SDS011;64592;52.168;21.040;2024-02-28T17:21:46;28.42;;;15.93;;
75912;SDS011;64592;52.168;21.040;2024-02-28T17:26:47;28.50;;;13.30;;
75912;SDS011;64592;52.168;21.040;2024-02-28T17:31:50;25.23;;;12.98;;
75912;SDS011;64592;52.168;21.040;2024-02-28T17:36:53;30.10;;;14.18;;
75912;SDS011;64592;52.168;21.040;2024-02-28T17:41:55;28.40;;;14.07;;
75912;SDS011;64592;52.168;21.040;2024-02-28T17:47:00;30.65;;;14.32;;
75912;SDS011;64592;52.168;21.040;2024-02-28T17:52:01;31.25;;;16.17;;
75912;SDS011;64592;52.168;21.040;2024-02-28T17:57:04;32.47;;;15.52;;
75912;SDS011;64592;52.168;21.040;2024-02-28T18:02:08;32.45;;;15.82;;
75912;SDS011;64592;52.168;21.040;2024-02-28T18:07:10;26.70;;;14.13;;
75912;SDS011;64592;52.168;21.040;2024-02-28T18:12:14;29.92;;;14.63;;
75912;SDS011;64592;52.168;21.040;2024-02-28T18:17:17;28.73;;;14.95;;
75912;SDS011;64592;52.168;21.040;2024-02-28T18:22:19;30.95;;;15.85;;
75912;SDS011;64592;52.168;21.040;2024-02-28T18:27:20;28.88;;;16.00;;
75912;SDS011;64592;52.168;21.040;2024-02-28T18:32:23;27.77;;;15.68;;
75912;SDS011;64592;52.168;21.040;2024-02-28T18:37:25;28.60;;;14.85;;
75912;SDS011;64592;52.168;21.040;2024-02-28T18:42:28;24.02;;;14.48;;
75912;SDS011;64592;52.168;21.040;2024-02-28T18:47:31;26.65;;;14.30;;
75912;SDS011;64592;52.168;21.040;2024-02-28T18:52:33;28.40;;;15.55;;
75912;SDS011;64592;52.168;21.040;2024-02-28T18:57:35;23.15;;;13.77;;
75912;SDS011;64592;52.168;21.040;2024-02-28T19:02:38;26.33;;;14.13;;
75912;SDS011;64592;52.168;21.040;2024-02-28T19:07:40;22.90;;;13.10;;
75912;SDS011;64592;52.168;21.040;2024-02-28T19:12:41;26.40;;;14.27;;
75912;SDS011;64592;52.168;21.040;2024-02-28T19:17:45;22.98;;;14.35;;
75912;SDS011;64592;52.168;21.040;2024-02-28T19:22:47;23.58;;;12.27;;
75912;SDS011;64592;52.168;21.040;2024-02-28T19:27:48;21.20;;;11.73;;
75912;SDS011;64592;52.168;21.040;2024-02-28T19:32:51;21.48;;;12.30;;
75912;SDS011;64592;52.168;21.040;2024-02-28T19:37:55;18.05;;;11.25;;
75912;SDS011;64592;52.168;21.040;2024-02-28T19:42:57;19.63;;;11.88;;
75912;SDS011;64592;52.168;21.040;2024-02-28T19:48:00;23.50;;;11.43;;
75912;SDS011;64592;52.168;21.040;2024-02-28T19:53:02;24.08;;;13.18;;
75912;SDS011;64592;52.168;21.040;2024-02-28T19:58:04;20.17;;;12.57;;
75912;SDS011;64592;52.168;21.040;2024-02-28T20:03:07;25.17;;;13.00;;
75912;SDS011;64592;52.168;21.040;2024-02-28T20:08:09;24.02;;;12.93;;
75912;SDS011;64592;52.168;21.040;2024-02-28T20:13:10;24.95;;;12.88;;
75912;SDS011;64592;52.168;21.040;2024-02-28T20:18:13;22.27;;;12.35;;
75912;SDS011;64592;52.168;21.040;2024-02-28T20:23:15;24.58;;;12.93;;
75912;SDS011;64592;52.168;21.040;2024-02-28T20:28:17;18.58;;;11.43;;
75912;SDS011;64592;52.168;21.040;2024-02-28T20:33:20;23.33;;;12.80;;
75912;SDS011;64592;52.168;21.040;2024-02-28T20:38:22;25.20;;;13.18;;
75912;SDS011;64592;52.168;21.040;2024-02-28T20:43:23;26.83;;;14.35;;
75912;SDS011;64592;52.168;21.040;2024-02-28T20:48:26;22.88;;;12.98;;
75912;SDS011;64592;52.168;21.040;2024-02-28T20:53:28;22.65;;;13.57;;
75912;SDS011;64592;52.168;21.040;2024-02-28T20:58:30;21.58;;;12.63;;
75912;SDS011;64592;52.168;21.040;2024-02-28T21:03:33;25.83;;;13.98;;
75912;SDS011;64592;52.168;21.040;2024-02-28T21:08:35;25.38;;;13.88;;
75912;SDS011;64592;52.168;21.040;2024-02-28T21:13:36;26.70;;;14.02;;
75912;SDS011;64592;52.168;21.040;2024-02-28T21:18:40;26.02;;;14.15;;
75912;SDS011;64592;52.168;21.040;2024-02-28T21:23:41;26.70;;;15.48;;
75912;SDS011;64592;52.168;21.040;2024-02-28T21:28:43;31.48;;;17.00;;
75912;SDS011;64592;52.168;21.040;2024-02-28T21:33:46;33.05;;;17.15;;
75912;SDS011;64592;52.168;21.040;2024-02-28T21:38:48;33.10;;;16.92;;
75912;SDS011;64592;52.168;21.040;2024-02-28T21:43:51;32.65;;;17.10;;
75912;SDS011;64592;52.168;21.040;2024-02-28T21:48:57;35.60;;;18.15;;
75912;SDS011;64592;52.168;21.040;2024-02-28T21:53:59;35.75;;;17.60;;
75912;SDS011;64592;52.168;21.040;2024-02-28T21:59:01;35.50;;;16.88;;
75912;SDS011;64592;52.168;21.040;2024-02-28T22:04:04;31.13;;;15.60;;
75912;SDS011;64592;52.168;21.040;2024-02-28T22:09:06;34.10;;;15.63;;
75912;SDS011;64592;52.168;21.040;2024-02-28T22:14:07;34.35;;;16.80;;
75912;SDS011;64592;52.168;21.040;2024-02-28T22:19:12;30.60;;;16.42;;
75912;SDS011;64592;52.168;21.040;2024-02-28T22:24:14;32.88;;;17.25;;
75912;SDS011;64592;52.168;21.040;2024-02-28T22:29:15;31.30;;;16.27;;
75912;SDS011;64592;52.168;21.040;2024-02-28T22:34:20;34.03;;;16.58;;
75912;SDS011;64592;52.168;21.040;2024-02-28T22:39:22;32.35;;;17.60;;
75912;SDS011;64592;52.168;21.040;2024-02-28T22:44:23;34.35;;;17.83;;
75912;SDS011;64592;52.168;21.040;2024-02-28T22:49:26;33.90;;;17.98;;
75912;SDS011;64592;52.168;21.040;2024-02-28T22:54:29;38.75;;;17.20;;
75912;SDS011;64592;52.168;21.040;2024-02-28T22:59:30;37.20;;;18.25;;
75912;SDS011;64592;52.168;21.040;2024-02-28T23:04:33;34.92;;;17.25;;
75912;SDS011;64592;52.168;21.040;2024-02-28T23:09:35;31.95;;;14.75;;
75912;SDS011;64592;52.168;21.040;2024-02-28T23:14:37;27.52;;;13.32;;
75912;SDS011;64592;52.168;21.040;2024-02-28T23:19:40;27.55;;;12.48;;
75912;SDS011;64592;52.168;21.040;2024-02-28T23:24:42;19.88;;;11.07;;
75912;SDS011;64592;52.168;21.040;2024-02-28T23:29:44;20.45;;;11.13;;
75912;SDS011;64592;52.168;21.040;2024-02-28T23:34:47;22.73;;;11.45;;
75912;SDS011;64592;52.168;21.040;2024-02-28T23:39:48;26.90;;;12.05;;
75912;SDS011;64592;52.168;21.040;2024-02-28T23:44:50;20.30;;;10.90;;
75912;SDS011;64592;52.168;21.040;2024-02-28T23:49:54;19.70;;;10.63;;
75912;SDS011;64592;52.168;21.040;2024-02-28T23:54:56;21.58;;;10.45;;
75912;SDS011;64592;52.168;21.040;2024-02-28T23:59:58;16.40;;;9.15;;
